Avon, Indiana
Current Conditions -  °F | °C
As of 7:53 AM on Monday 22 Dec 2014 (Local Time) from KEYE Reporting Station
Overcast Overcast  
Wind Chill: -2°   Ceiling: 3000
Heat Index:   Visibility: 9mi
Dew Point: -2°   Wind: 6mph
Humidity: 82%   Direction: 120°ESE
Pressure: 29.96"   Gusts: NA
Location:  39.76°N, 86.4°W
Report Text: KEYE 221253Z AUTO 12005KT 9SM BKN030 OVC043 01/M02 A2996 RMK AO2 SLP153 T00061022
Loading
Personal Weather Stations






























Interactive Weather Map New forecast layout! Learn more

10-Day Weather Forecast

Advertisements
Track Severe Weather on mobile